createdAt,value
2019-02-22T00:01:17.701Z,6.00
2019-02-22T00:03:47.982Z,6.30
2019-02-22T00:06:18.103Z,6.60
2019-02-22T00:08:48.399Z,6.80
2019-02-22T00:11:18.565Z,6.90
2019-02-22T00:13:49.175Z,7.00
2019-02-22T00:16:19.360Z,7.00
2019-02-22T00:18:50.290Z,7.10
2019-02-22T00:21:20.464Z,7.20
2019-02-22T00:23:50.660Z,7.30
2019-02-22T00:26:20.842Z,7.40
2019-02-22T00:28:51.207Z,7.40
2019-02-22T00:31:22.977Z,7.40
2019-02-22T00:33:53.162Z,7.50
2019-02-22T00:36:23.466Z,7.50
2019-02-22T00:38:54.036Z,7.60
2019-02-22T00:41:24.242Z,7.60
2019-02-22T00:43:54.552Z,7.70
2019-02-22T00:46:24.702Z,7.70
2019-02-22T00:49:06.586Z,7.70
2019-02-22T00:51:36.748Z,7.70
2019-02-22T00:54:06.956Z,7.70
2019-02-22T00:56:37.543Z,7.70
2019-02-22T00:59:07.680Z,7.80
2019-02-22T01:01:37.868Z,7.80
2019-02-22T01:04:08.150Z,7.80
2019-02-22T01:06:38.368Z,7.80
2019-02-22T01:09:08.762Z,7.80
2019-02-22T01:11:39.312Z,7.80
2019-02-22T01:14:09.524Z,7.80
2019-02-22T01:16:39.700Z,7.80
2019-02-22T01:19:10.268Z,7.90
2019-02-22T01:21:40.416Z,7.90
2019-02-22T01:24:10.657Z,7.90
2019-02-22T01:26:41.159Z,7.90
2019-02-22T01:29:11.381Z,7.90
2019-02-22T01:31:41.550Z,7.90
2019-02-22T01:34:11.889Z,7.90
2019-02-22T01:36:42.053Z,7.90
2019-02-22T01:39:12.257Z,7.90
2019-02-22T01:41:42.461Z,8.00
2019-02-22T01:44:24.117Z,7.90
2019-02-22T01:46:54.694Z,7.90
2019-02-22T01:49:24.985Z,7.90
2019-02-22T01:51:55.463Z,8.00
2019-02-22T01:54:25.761Z,8.00
2019-02-22T01:56:56.924Z,8.00
2019-02-22T01:59:27.126Z,7.90
2019-02-22T02:01:57.299Z,7.90
2019-02-22T02:04:27.418Z,7.90
2019-02-22T02:06:57.965Z,7.90
2019-02-22T02:09:28.266Z,7.90
2019-02-22T02:11:58.554Z,7.90
2019-02-22T02:14:28.763Z,7.90
2019-02-22T02:16:58.925Z,7.90
2019-02-22T02:19:29.113Z,7.80
2019-02-22T02:21:59.282Z,7.80
2019-02-22T02:24:29.509Z,7.80
2019-02-22T02:26:59.989Z,7.80
2019-02-22T02:29:39.335Z,7.90
2019-02-22T02:32:09.424Z,7.80
2019-02-22T02:34:40.687Z,7.90
2019-02-22T02:37:10.837Z,7.90
2019-02-22T02:39:41.037Z,7.90
2019-02-22T02:42:11.521Z,7.90
2019-02-22T02:44:41.727Z,7.90
2019-02-22T02:47:11.896Z,7.90
2019-02-22T02:49:42.461Z,7.80
2019-02-22T02:52:12.695Z,7.80
2019-02-22T02:54:42.902Z,7.80
2019-02-22T02:57:13.417Z,7.80
2019-02-22T02:59:43.690Z,7.80
2019-02-22T03:02:20.122Z,7.90
2019-02-22T03:04:50.319Z,7.90
2019-02-22T03:07:51.802Z,7.90
2019-02-22T03:10:22.039Z,7.90
2019-02-22T03:12:52.244Z,7.90
2019-02-22T03:15:22.464Z,7.90
2019-02-22T03:17:52.668Z,7.90
2019-02-22T03:20:22.874Z,7.90
2019-02-22T03:22:53.066Z,7.90
2019-02-22T03:25:23.593Z,7.90
2019-02-22T03:27:53.749Z,7.90
2019-02-22T03:30:23.981Z,7.90
2019-02-22T03:32:54.542Z,7.90
2019-02-22T03:35:24.767Z,7.90
2019-02-22T03:37:54.900Z,7.90
2019-02-22T03:40:25.089Z,7.80
2019-02-22T03:42:55.267Z,7.80
2019-02-22T03:45:25.464Z,7.90
2019-02-22T03:47:56.043Z,7.80
2019-02-22T03:50:26.196Z,7.70
2019-02-22T03:53:05.557Z,7.70
2019-02-22T03:55:35.792Z,7.70
2019-02-22T03:58:05.958Z,7.70
2019-02-22T04:00:36.165Z,7.70
2019-02-22T04:03:07.185Z,7.70
2019-02-22T04:05:37.449Z,7.70
2019-02-22T04:08:07.863Z,7.70
2019-02-22T04:10:38.075Z,7.70
2019-02-22T04:13:08.281Z,7.70
2019-02-22T04:15:39.558Z,7.60
2019-02-22T04:18:09.743Z,7.60
2019-02-22T04:20:40.645Z,7.60
2019-02-22T04:23:11.285Z,7.60
2019-02-22T04:25:41.551Z,7.60
2019-02-22T04:28:11.812Z,7.70
2019-02-22T04:30:41.995Z,7.60
2019-02-22T04:33:12.257Z,7.60
2019-02-22T04:35:43.185Z,7.70
2019-02-22T04:38:13.761Z,7.70
2019-02-22T04:40:43.958Z,7.70
2019-02-22T04:43:14.239Z,7.70
2019-02-22T04:45:44.419Z,7.70
2019-02-22T04:48:14.911Z,7.70
2019-02-22T04:50:45.441Z,7.70
2019-02-22T04:53:16.891Z,7.70
2019-02-22T04:55:47.025Z,7.70
2019-02-22T04:58:17.260Z,7.70
2019-02-22T05:00:47.896Z,7.70
2019-02-22T05:03:18.131Z,7.60
2019-02-22T05:05:48.493Z,7.70
2019-02-22T05:08:18.667Z,7.70
2019-02-22T05:10:48.868Z,7.70
2019-02-22T05:13:19.050Z,7.60
2019-02-22T05:15:49.271Z,7.60
2019-02-22T05:18:19.727Z,7.70
2019-02-22T05:20:49.941Z,7.70
2019-02-22T05:23:20.192Z,7.70
2019-02-22T05:25:50.708Z,7.70
2019-02-22T05:28:20.895Z,7.70
2019-02-22T05:30:51.106Z,7.70
2019-02-22T05:33:21.935Z,7.70
2019-02-22T05:35:52.148Z,7.70
2019-02-22T05:38:22.397Z,7.70
2019-02-22T05:40:52.671Z,7.70
2019-02-22T05:43:22.908Z,7.70
2019-02-22T05:45:53.107Z,7.70
2019-02-22T05:48:25.320Z,7.70
2019-02-22T05:50:55.497Z,7.70
2019-02-22T05:53:25.748Z,7.70
2019-02-22T05:55:56.050Z,7.70
2019-02-22T05:58:26.306Z,7.60
2019-02-22T06:00:56.800Z,7.60
2019-02-22T06:03:27.002Z,7.60
2019-02-22T06:05:57.113Z,7.60
2019-02-22T06:08:27.287Z,7.60
2019-02-22T06:10:57.896Z,7.50
2019-02-22T06:13:28.061Z,7.50
2019-02-22T06:15:58.265Z,7.40
2019-02-22T06:18:28.437Z,7.50
2019-02-22T06:20:58.557Z,7.50
2019-02-22T06:23:29.100Z,7.50
2019-02-22T06:25:59.410Z,7.50
2019-02-22T06:28:29.636Z,7.50
2019-02-22T06:30:59.857Z,7.50
2019-02-22T06:33:30.032Z,7.40
2019-02-22T06:36:00.579Z,7.50
2019-02-22T06:38:30.868Z,7.40
2019-02-22T06:41:01.124Z,7.40
2019-02-22T06:43:31.950Z,7.40
2019-02-22T06:46:02.147Z,7.40
2019-02-22T06:48:32.357Z,7.40
2019-02-22T06:51:02.583Z,7.30
2019-02-22T06:53:32.795Z,7.30
2019-02-22T06:56:03.053Z,7.30
2019-02-22T06:58:33.550Z,7.30
2019-02-22T07:01:04.103Z,7.40
2019-02-22T07:03:34.475Z,7.40
2019-02-22T07:06:05.635Z,7.30
2019-02-22T07:08:37.187Z,7.20
2019-02-22T07:11:15.569Z,7.30
2019-02-22T07:13:45.797Z,7.30
2019-02-22T07:16:16.019Z,7.30
2019-02-22T07:18:46.132Z,7.30
2019-02-22T07:21:16.303Z,7.40
2019-02-22T07:23:47.054Z,7.40
2019-02-22T07:26:17.505Z,7.40
2019-02-22T07:28:47.978Z,7.40
2019-02-22T07:31:18.179Z,7.40
2019-02-22T07:33:48.345Z,7.40
2019-02-22T07:36:18.540Z,7.50
2019-02-22T07:38:48.958Z,7.50
2019-02-22T07:41:19.177Z,7.50
2019-02-22T07:43:49.430Z,7.50
2019-02-22T07:46:19.628Z,7.60
2019-02-22T07:48:50.173Z,7.60
2019-02-22T07:51:20.370Z,7.60
2019-02-22T07:53:50.548Z,7.70
2019-02-22T07:56:20.749Z,7.60
2019-02-22T07:58:50.930Z,7.60
2019-02-22T08:01:21.277Z,7.70
2019-02-22T08:03:51.456Z,7.80
2019-02-22T08:06:21.688Z,7.80
2019-02-22T08:08:51.878Z,7.80
2019-02-22T08:11:22.072Z,7.80
2019-02-22T08:13:52.233Z,7.90
2019-02-22T08:16:22.444Z,7.90
2019-02-22T08:19:00.951Z,8.00
2019-02-22T08:21:24.518Z,8.00
2019-02-22T08:23:54.733Z,8.00
2019-02-22T08:26:24.945Z,8.00
2019-02-22T08:28:55.465Z,8.10
2019-02-22T08:31:26.009Z,8.10
2019-02-22T08:33:57.161Z,8.00
2019-02-22T08:36:27.630Z,8.10
2019-02-22T08:38:58.249Z,8.10
2019-02-22T08:41:28.469Z,8.20
2019-02-22T08:43:58.640Z,8.30
2019-02-22T08:46:30.343Z,8.50
2019-02-22T08:49:00.612Z,8.50
2019-02-22T08:51:31.989Z,8.50
2019-02-22T08:54:02.223Z,8.50
2019-02-22T08:56:32.439Z,8.50
2019-02-22T08:59:02.778Z,8.50
2019-02-22T09:01:35.563Z,8.60
2019-02-22T09:04:04.921Z,8.50
2019-02-22T09:06:35.273Z,8.70
2019-02-22T09:09:07.237Z,8.90
2019-02-22T09:11:37.663Z,9.10
2019-02-22T09:14:07.777Z,9.20
2019-02-22T09:16:37.981Z,9.20
2019-02-22T09:19:08.152Z,9.10
2019-02-22T09:21:38.356Z,9.10
2019-02-22T09:24:08.495Z,9.20
2019-02-22T09:26:39.164Z,9.20
2019-02-22T09:29:10.764Z,9.30
2019-02-22T09:31:40.967Z,9.20
2019-02-22T09:34:11.586Z,9.20
2019-02-22T09:36:42.099Z,9.40
2019-02-22T09:39:12.282Z,9.40
2019-02-22T09:41:42.548Z,9.50
2019-02-22T09:44:12.766Z,9.50
2019-02-22T09:46:43.634Z,9.60
2019-02-22T09:49:14.172Z,9.70
2019-02-22T09:51:44.404Z,9.50
2019-02-22T09:54:14.594Z,9.60
2019-02-22T09:56:45.146Z,9.70
2019-02-22T09:59:15.322Z,9.70
2019-02-22T10:01:45.531Z,9.70
2019-02-22T10:04:16.128Z,9.80
2019-02-22T10:06:46.352Z,9.80
2019-02-22T10:09:16.499Z,9.70
2019-02-22T10:11:46.790Z,9.80
2019-02-22T10:14:16.985Z,9.90
2019-02-22T10:16:47.942Z,9.80
2019-02-22T10:19:18.488Z,10.00
2019-02-22T10:21:48.713Z,10.10
2019-02-22T10:24:18.883Z,10.20
2019-02-22T10:26:49.160Z,10.30
2019-02-22T10:29:19.326Z,10.40
2019-02-22T10:31:49.862Z,10.40
2019-02-22T10:34:20.011Z,10.60
2019-02-22T10:36:50.261Z,10.70
2019-02-22T10:39:20.515Z,10.70
2019-02-22T10:41:50.728Z,10.80
2019-02-22T10:44:21.290Z,10.80
2019-02-22T10:46:51.511Z,11.00
2019-02-22T10:49:21.705Z,11.10
2019-02-22T10:51:52.165Z,11.20
2019-02-22T10:54:22.373Z,11.30
2019-02-22T10:56:52.598Z,11.40
2019-02-22T10:59:23.230Z,11.60
2019-02-22T11:01:53.778Z,11.70
2019-02-22T11:04:23.953Z,11.30
2019-02-22T11:06:54.151Z,11.50
2019-02-22T11:09:24.346Z,11.50
2019-02-22T11:11:54.961Z,11.80
2019-02-22T11:14:29.317Z,12.20
2019-02-22T11:16:57.421Z,12.40
2019-02-22T11:19:27.982Z,12.80
2019-02-22T11:21:58.196Z,13.00
2019-02-22T11:24:28.901Z,12.70
2019-02-22T11:26:59.180Z,12.70
2019-02-22T11:29:29.799Z,12.30
2019-02-22T11:31:59.998Z,12.30
2019-02-22T11:34:30.576Z,12.50
2019-02-22T11:37:01.845Z,12.50
2019-02-22T11:39:32.105Z,12.70
2019-02-22T11:42:02.330Z,13.00
2019-02-22T11:44:40.199Z,12.80
2019-02-22T11:47:04.858Z,13.00
2019-02-22T11:49:35.100Z,13.50
2019-02-22T11:52:05.662Z,14.00
2019-02-22T11:54:35.833Z,14.40
2019-02-22T11:57:06.687Z,14.70
2019-02-22T11:59:37.046Z,14.70
2019-02-22T12:02:07.684Z,15.60
2019-02-22T12:04:37.872Z,16.20
2019-02-22T12:07:08.446Z,16.60
2019-02-22T12:09:38.646Z,16.40
2019-02-22T12:12:08.928Z,16.00
2019-02-22T12:14:39.260Z,16.70
2019-02-22T12:17:09.498Z,16.90
2019-02-22T12:19:39.716Z,17.10
2019-02-22T12:22:09.868Z,17.50
2019-02-22T12:24:40.109Z,17.70
2019-02-22T12:27:10.340Z,17.50
2019-02-22T12:29:40.576Z,17.50
2019-02-22T12:32:10.795Z,18.00
2019-02-22T12:34:41.306Z,18.70
2019-02-22T12:37:11.457Z,18.90
2019-02-22T12:39:41.966Z,19.20
2019-02-22T12:42:12.556Z,18.20
2019-02-22T12:44:42.756Z,17.40
2019-02-22T12:47:12.956Z,16.80
2019-02-22T12:49:43.202Z,16.70
2019-02-22T12:52:13.510Z,16.90
2019-02-22T12:54:43.795Z,16.70
2019-02-22T12:57:13.980Z,15.80
2019-02-22T12:59:44.176Z,15.20
2019-02-22T13:02:14.701Z,15.00
2019-02-22T13:04:44.911Z,14.80
2019-02-22T13:07:15.189Z,14.50
2019-02-22T13:09:45.301Z,14.30
2019-02-22T13:12:17.424Z,14.20
2019-02-22T13:14:47.461Z,14.00
2019-02-22T13:17:17.619Z,14.10
2019-02-22T13:19:47.853Z,14.00
2019-02-22T13:22:18.081Z,13.90
2019-02-22T13:24:48.285Z,13.80
2019-02-22T13:27:19.302Z,13.80
2019-02-22T13:29:49.922Z,13.80
2019-02-22T13:32:20.746Z,13.80
2019-02-22T13:34:50.916Z,13.90
2019-02-22T13:37:21.500Z,14.10
2019-02-22T13:39:51.693Z,14.20
2019-02-22T13:42:21.928Z,14.30
2019-02-22T13:44:52.199Z,14.30
2019-02-22T13:47:22.827Z,14.20
2019-02-22T13:49:53.262Z,14.20
2019-02-22T13:52:23.378Z,13.90
2019-02-22T13:54:53.580Z,13.90
2019-02-22T13:57:23.798Z,13.90
2019-02-22T13:59:53.992Z,14.10
2019-02-22T14:02:24.290Z,14.10
2019-02-22T14:04:54.393Z,14.20
2019-02-22T14:07:24.609Z,14.20
2019-02-22T14:09:55.251Z,14.30
2019-02-22T14:12:26.140Z,14.10
2019-02-22T14:14:56.340Z,13.70
2019-02-22T14:17:26.869Z,13.50
2019-02-22T14:19:57.106Z,13.50
2019-02-22T14:22:27.333Z,13.40
2019-02-22T14:24:57.542Z,13.30
2019-02-22T14:27:27.771Z,13.10
2019-02-22T14:29:57.970Z,13.10
2019-02-22T14:32:28.217Z,13.10
2019-02-22T14:34:58.482Z,13.20
2019-02-22T14:37:28.789Z,13.30
2019-02-22T14:40:03.457Z,13.30
2019-02-22T14:42:31.435Z,13.30
2019-02-22T14:45:01.999Z,13.40
2019-02-22T14:47:32.820Z,13.40
2019-02-22T14:50:03.278Z,13.40
2019-02-22T14:52:33.559Z,13.40
2019-02-22T14:55:03.748Z,13.40
2019-02-22T14:57:33.946Z,13.40
2019-02-22T15:00:04.809Z,13.40
2019-02-22T15:02:35.421Z,13.60
2019-02-22T15:05:08.965Z,13.60
2019-02-22T15:07:38.148Z,13.80
2019-02-22T15:10:08.658Z,13.80
2019-02-22T15:12:38.962Z,13.70
2019-02-22T15:15:09.969Z,13.50
2019-02-22T15:17:58.508Z,13.40
2019-02-22T15:20:29.096Z,13.30
2019-02-22T15:22:59.359Z,13.20
2019-02-22T15:25:29.665Z,13.10
2019-02-22T15:27:59.890Z,13.00
2019-02-22T15:30:30.108Z,12.90
2019-02-22T15:33:00.423Z,13.00
2019-02-22T15:35:30.901Z,12.90
2019-02-22T15:38:01.524Z,12.90
2019-02-22T15:40:32.018Z,13.00
2019-02-22T15:43:03.448Z,13.00
2019-02-22T15:45:33.768Z,12.90
2019-02-22T15:48:04.118Z,12.80
2019-02-22T15:50:34.762Z,12.70
2019-02-22T15:53:05.212Z,12.60
2019-02-22T15:55:36.168Z,12.60
2019-02-22T15:58:06.470Z,12.60
2019-02-22T16:00:37.284Z,12.60
2019-02-22T16:03:07.646Z,12.60
2019-02-22T16:05:41.481Z,12.50
2019-02-22T16:08:12.075Z,12.40
2019-02-22T16:10:42.917Z,12.30
2019-02-22T16:13:13.463Z,12.30
2019-02-22T16:15:43.891Z,12.30
2019-02-22T16:18:14.394Z,12.20
2019-02-22T16:20:44.604Z,12.10
2019-02-22T16:23:15.268Z,12.00
2019-02-22T16:25:45.439Z,11.90
2019-02-22T16:28:15.924Z,11.90
2019-02-22T16:30:46.263Z,11.90
2019-02-22T16:33:16.482Z,11.90
2019-02-22T16:35:46.680Z,11.80
2019-02-22T16:38:16.903Z,11.70
2019-02-22T16:40:47.166Z,11.70
2019-02-22T16:43:17.368Z,11.70
2019-02-22T16:45:47.906Z,11.60
2019-02-22T16:48:18.123Z,11.60
2019-02-22T16:50:48.321Z,11.60
2019-02-22T16:53:18.543Z,11.60
2019-02-22T16:55:49.052Z,11.60
2019-02-22T16:58:19.265Z,11.60
2019-02-22T17:00:49.522Z,11.60
2019-02-22T17:03:19.825Z,11.50
2019-02-22T17:05:50.025Z,11.50
2019-02-22T17:08:20.241Z,11.50
2019-02-22T17:10:50.440Z,11.50
2019-02-22T17:13:22.289Z,11.50
2019-02-22T17:15:52.441Z,11.50
2019-02-22T17:18:22.705Z,11.40
2019-02-22T17:20:52.993Z,11.40
2019-02-22T17:23:23.215Z,11.40
2019-02-22T17:25:53.405Z,11.30
2019-02-22T17:28:23.657Z,11.30
2019-02-22T17:30:54.171Z,11.20
2019-02-22T17:33:24.773Z,11.30
2019-02-22T17:35:55.017Z,11.20
2019-02-22T17:38:25.341Z,11.20
2019-02-22T17:40:55.553Z,11.20
2019-02-22T17:43:25.913Z,11.20
2019-02-22T17:45:56.205Z,11.20
2019-02-22T17:48:26.438Z,11.20
2019-02-22T17:50:56.647Z,11.20
2019-02-22T17:53:26.954Z,11.10
2019-02-22T17:55:57.193Z,11.10
2019-02-22T17:58:27.826Z,11.20
2019-02-22T18:00:58.221Z,11.20
2019-02-22T18:03:28.545Z,11.20
2019-02-22T18:05:58.771Z,11.20
2019-02-22T18:08:29.028Z,11.10
2019-02-22T18:10:59.220Z,11.10
2019-02-22T18:13:29.858Z,11.20
2019-02-22T18:16:00.073Z,11.10
2019-02-22T18:18:30.334Z,11.10
2019-02-22T18:21:00.627Z,11.10
2019-02-22T18:23:31.287Z,11.10
2019-02-22T18:26:02.056Z,11.10
2019-02-22T18:28:32.337Z,11.00
2019-02-22T18:31:02.630Z,11.00
2019-02-22T18:33:32.904Z,10.90
2019-02-22T18:36:03.055Z,10.80
2019-02-22T18:38:33.271Z,10.80
2019-02-22T18:41:03.592Z,10.60
2019-02-22T18:43:33.912Z,10.50
2019-02-22T18:46:04.151Z,10.40
2019-02-22T18:48:34.776Z,10.30
2019-02-22T18:51:04.994Z,10.30
2019-02-22T18:53:35.248Z,10.30
2019-02-22T18:56:05.476Z,10.30
2019-02-22T18:58:36.440Z,10.40
2019-02-22T19:01:06.674Z,10.40
2019-02-22T19:03:37.192Z,10.40
2019-02-22T19:06:07.549Z,10.50
2019-02-22T19:08:37.761Z,10.50
2019-02-22T19:11:08.066Z,10.40
2019-02-22T19:13:38.396Z,10.30
2019-02-22T19:16:08.925Z,10.30
2019-02-22T19:18:39.150Z,10.30
2019-02-22T19:21:09.346Z,10.30
2019-02-22T19:23:39.573Z,10.40
2019-02-22T19:26:09.796Z,10.50
2019-02-22T19:28:40.103Z,10.60
2019-02-22T19:31:10.386Z,10.70
2019-02-22T19:33:40.814Z,10.80
2019-02-22T19:36:11.071Z,10.80
2019-02-22T19:38:41.319Z,10.90
2019-02-22T19:41:11.536Z,11.10
2019-02-22T19:43:41.846Z,11.20
2019-02-22T19:46:12.136Z,11.30
2019-02-22T19:48:42.442Z,11.20
2019-02-22T19:51:12.685Z,11.20
2019-02-22T19:53:43.377Z,11.20
2019-02-22T19:56:13.691Z,11.10
2019-02-22T19:58:44.454Z,11.10
2019-02-22T20:01:14.649Z,11.10
2019-02-22T20:03:45.022Z,11.10
2019-02-22T20:06:15.249Z,11.10
2019-02-22T20:08:45.599Z,11.10
2019-02-22T20:11:16.187Z,11.00
2019-02-22T20:13:47.100Z,11.00
2019-02-22T20:16:17.432Z,10.80
2019-02-22T20:18:47.734Z,10.70
2019-02-22T20:21:17.941Z,10.60
2019-02-22T20:23:48.301Z,10.60
2019-02-22T20:26:18.501Z,10.40
2019-02-22T20:28:49.130Z,10.20
2019-02-22T20:31:20.732Z,10.10
2019-02-22T20:33:51.111Z,10.00
2019-02-22T20:36:28.480Z,10.00
2019-02-22T20:38:53.717Z,10.00
2019-02-22T20:41:23.933Z,10.00
2019-02-22T20:43:54.473Z,9.90
2019-02-22T20:46:26.315Z,9.80
2019-02-22T20:49:00.721Z,9.70
2019-02-22T20:51:28.459Z,9.70
2019-02-22T20:53:58.914Z,9.80
2019-02-22T20:56:29.101Z,9.80
2019-02-22T20:58:59.311Z,9.70
2019-02-22T21:01:30.005Z,9.60
2019-02-22T21:04:00.271Z,9.60
2019-02-22T21:06:30.448Z,9.50
2019-02-22T21:09:01.008Z,9.40
2019-02-22T21:11:32.854Z,9.40
2019-02-22T21:14:03.138Z,9.50
2019-02-22T21:16:33.470Z,9.50
2019-02-22T21:19:04.124Z,9.40
2019-02-22T21:21:34.328Z,9.30
2019-02-22T21:24:04.616Z,9.40
2019-02-22T21:26:34.798Z,9.30
2019-02-22T21:29:05.103Z,9.40
2019-02-22T21:31:35.281Z,9.30
2019-02-22T21:34:05.471Z,9.30
2019-02-22T21:36:35.664Z,9.30
2019-02-22T21:39:06.704Z,9.20
2019-02-22T21:41:38.080Z,9.10
2019-02-22T21:44:08.290Z,9.10
2019-02-22T21:46:38.472Z,9.20
2019-02-22T21:49:08.693Z,9.10
2019-02-22T21:51:39.205Z,9.00
2019-02-22T21:54:09.425Z,9.00
2019-02-22T21:56:39.678Z,9.00
2019-02-22T21:59:10.281Z,9.00
2019-02-22T22:01:40.587Z,9.00
2019-02-22T22:04:10.821Z,9.00
2019-02-22T22:06:41.038Z,8.90
2019-02-22T22:09:12.012Z,8.90
2019-02-22T22:11:42.432Z,9.00
2019-02-22T22:14:12.714Z,9.00
2019-02-22T22:16:43.020Z,9.00
2019-02-22T22:19:13.248Z,9.00
2019-02-22T22:21:45.173Z,8.90
2019-02-22T22:24:15.403Z,8.90
2019-02-22T22:26:45.608Z,8.80
2019-02-22T22:29:15.863Z,8.80
2019-02-22T22:31:46.047Z,8.80
2019-02-22T22:34:16.347Z,8.70
2019-02-22T22:36:46.873Z,8.70
2019-02-22T22:39:17.106Z,8.80
2019-02-22T22:41:47.863Z,8.70
2019-02-22T22:44:18.516Z,8.50
2019-02-22T22:46:48.700Z,8.50
2019-02-22T22:49:19.002Z,8.50
2019-02-22T22:51:49.660Z,8.40
2019-02-22T22:54:20.341Z,8.30
2019-02-22T22:56:50.609Z,8.40
2019-02-22T22:59:20.834Z,8.40
2019-02-22T23:01:51.148Z,8.30
2019-02-22T23:04:22.912Z,8.30
2019-02-22T23:06:53.225Z,8.30
2019-02-22T23:09:24.309Z,8.30
2019-02-22T23:11:54.686Z,8.30
2019-02-22T23:14:24.910Z,8.30
2019-02-22T23:16:55.112Z,8.40
2019-02-22T23:19:25.676Z,8.40
2019-02-22T23:21:55.880Z,8.50
2019-02-22T23:24:26.098Z,8.50
2019-02-22T23:26:57.754Z,8.60
2019-02-22T23:29:28.032Z,8.50
2019-02-22T23:31:59.722Z,8.60
2019-02-22T23:34:29.965Z,8.70
2019-02-22T23:37:00.190Z,8.60
2019-02-22T23:39:30.700Z,8.60
2019-02-22T23:42:00.910Z,8.60
2019-02-22T23:44:31.479Z,8.60
2019-02-22T23:47:02.112Z,8.50
2019-02-22T23:49:32.327Z,8.50
2019-02-22T23:52:02.515Z,8.40
2019-02-22T23:54:32.674Z,8.30
2019-02-22T23:57:02.886Z,8.30
2019-02-22T23:59:33.041Z,8.30
